sensor_id;sensor_type;location;lat;lon;timestamp;temperature;humidity
37002;DHT22;22913;51.910;8.374;2023-04-03T00:01:24;4.10;99.90
37002;DHT22;22913;51.910;8.374;2023-04-03T00:04:10;4.10;99.90
37002;DHT22;22913;51.910;8.374;2023-04-03T00:06:56;4.00;99.90
37002;DHT22;22913;51.910;8.374;2023-04-03T00:09:42;4.00;99.90
37002;DHT22;22913;51.910;8.374;2023-04-03T00:12:28;4.00;99.90
37002;DHT22;22913;51.910;8.374;2023-04-03T00:15:13;3.90;99.90
37002;DHT22;22913;51.910;8.374;2023-04-03T00:17:59;3.90;99.90
37002;DHT22;22913;51.910;8.374;2023-04-03T00:20:45;3.90;99.90
37002;DHT22;22913;51.910;8.374;2023-04-03T00:23:31;3.80;99.90
37002;DHT22;22913;51.910;8.374;2023-04-03T00:26:18;3.80;99.90
37002;DHT22;22913;51.910;8.374;2023-04-03T00:29:05;3.80;99.90
37002;DHT22;22913;51.910;8.374;2023-04-03T00:31:50;3.70;99.90
37002;DHT22;22913;51.910;8.374;2023-04-03T00:34:36;3.70;99.90
37002;DHT22;22913;51.910;8.374;2023-04-03T00:37:22;3.70;99.90
37002;DHT22;22913;51.910;8.374;2023-04-03T00:40:08;3.60;99.90
37002;DHT22;22913;51.910;8.374;2023-04-03T00:42:58;3.50;99.90
37002;DHT22;22913;51.910;8.374;2023-04-03T00:45:45;3.50;99.90
37002;DHT22;22913;51.910;8.374;2023-04-03T00:48:34;3.50;99.90
37002;DHT22;22913;51.910;8.374;2023-04-03T00:51:22;3.40;99.90
37002;DHT22;22913;51.910;8.374;2023-04-03T00:54:08;3.40;99.90
37002;DHT22;22913;51.910;8.374;2023-04-03T00:56:55;3.30;99.90
37002;DHT22;22913;51.910;8.374;2023-04-03T00:59:48;3.30;99.90
37002;DHT22;22913;51.910;8.374;2023-04-03T01:02:34;3.30;99.90
37002;DHT22;22913;51.910;8.374;2023-04-03T01:05:21;3.30;99.90
37002;DHT22;22913;51.910;8.374;2023-04-03T01:08:07;3.20;99.90
37002;DHT22;22913;51.910;8.374;2023-04-03T01:10:52;3.20;99.90
37002;DHT22;22913;51.910;8.374;2023-04-03T01:13:38;3.10;99.90
37002;DHT22;22913;51.910;8.374;2023-04-03T01:16:25;3.10;99.90
37002;DHT22;22913;51.910;8.374;2023-04-03T01:19:15;3.10;99.90
37002;DHT22;22913;51.910;8.374;2023-04-03T01:22:10;3.00;99.90
37002;DHT22;22913;51.910;8.374;2023-04-03T01:24:58;3.00;99.90
37002;DHT22;22913;51.910;8.374;2023-04-03T01:27:44;3.00;99.90
37002;DHT22;22913;51.910;8.374;2023-04-03T01:30:33;2.90;99.90
37002;DHT22;22913;51.910;8.374;2023-04-03T01:33:21;2.90;99.90
37002;DHT22;22913;51.910;8.374;2023-04-03T01:36:10;2.90;99.90
37002;DHT22;22913;51.910;8.374;2023-04-03T01:38:59;2.80;99.90
37002;DHT22;22913;51.910;8.374;2023-04-03T01:41:45;2.80;99.90
37002;DHT22;22913;51.910;8.374;2023-04-03T01:44:30;2.70;99.90
37002;DHT22;22913;51.910;8.374;2023-04-03T01:47:16;2.70;99.90
37002;DHT22;22913;51.910;8.374;2023-04-03T01:50:03;2.60;99.90
37002;DHT22;22913;51.910;8.374;2023-04-03T01:52:49;2.60;99.90
37002;DHT22;22913;51.910;8.374;2023-04-03T01:55:35;2.60;99.90
37002;DHT22;22913;51.910;8.374;2023-04-03T01:58:20;2.50;99.90
37002;DHT22;22913;51.910;8.374;2023-04-03T02:01:06;2.40;99.90
37002;DHT22;22913;51.910;8.374;2023-04-03T02:03:51;2.40;99.90
37002;DHT22;22913;51.910;8.374;2023-04-03T02:06:38;2.40;99.90
37002;DHT22;22913;51.910;8.374;2023-04-03T02:09:24;2.40;99.90
37002;DHT22;22913;51.910;8.374;2023-04-03T02:12:10;2.40;99.90
37002;DHT22;22913;51.910;8.374;2023-04-03T02:14:55;2.30;99.90
37002;DHT22;22913;51.910;8.374;2023-04-03T02:17:41;2.30;99.90
37002;DHT22;22913;51.910;8.374;2023-04-03T02:20:27;2.30;99.90
37002;DHT22;22913;51.910;8.374;2023-04-03T02:23:14;2.30;99.90
37002;DHT22;22913;51.910;8.374;2023-04-03T02:26:04;2.20;99.90
37002;DHT22;22913;51.910;8.374;2023-04-03T02:28:50;2.30;99.90
37002;DHT22;22913;51.910;8.374;2023-04-03T02:31:36;2.20;99.90
37002;DHT22;22913;51.910;8.374;2023-04-03T02:34:21;2.10;99.90
37002;DHT22;22913;51.910;8.374;2023-04-03T02:37:07;2.10;99.90
37002;DHT22;22913;51.910;8.374;2023-04-03T02:39:54;2.10;99.90
37002;DHT22;22913;51.910;8.374;2023-04-03T02:42:39;2.00;99.90
37002;DHT22;22913;51.910;8.374;2023-04-03T02:45:25;2.00;99.90
37002;DHT22;22913;51.910;8.374;2023-04-03T02:48:10;2.00;99.90
37002;DHT22;22913;51.910;8.374;2023-04-03T02:50:56;2.00;99.90
37002;DHT22;22913;51.910;8.374;2023-04-03T02:53:42;1.90;99.90
37002;DHT22;22913;51.910;8.374;2023-04-03T02:56:29;1.90;99.90
37002;DHT22;22913;51.910;8.374;2023-04-03T02:59:14;1.90;99.90
37002;DHT22;22913;51.910;8.374;2023-04-03T03:02:00;1.80;99.90
37002;DHT22;22913;51.910;8.374;2023-04-03T03:04:46;1.80;99.90
37002;DHT22;22913;51.910;8.374;2023-04-03T03:07:31;1.80;99.90
37002;DHT22;22913;51.910;8.374;2023-04-03T03:10:17;1.70;99.90
37002;DHT22;22913;51.910;8.374;2023-04-03T03:13:04;1.70;99.90
37002;DHT22;22913;51.910;8.374;2023-04-03T03:15:50;1.70;99.90
37002;DHT22;22913;51.910;8.374;2023-04-03T03:18:36;1.70;99.90
37002;DHT22;22913;51.910;8.374;2023-04-03T03:21:21;1.60;99.90
37002;DHT22;22913;51.910;8.374;2023-04-03T03:24:07;1.60;99.90
37002;DHT22;22913;51.910;8.374;2023-04-03T03:26:52;1.50;99.90
37002;DHT22;22913;51.910;8.374;2023-04-03T03:29:39;1.50;99.90
37002;DHT22;22913;51.910;8.374;2023-04-03T03:32:25;1.50;99.90
37002;DHT22;22913;51.910;8.374;2023-04-03T03:35:11;1.50;99.90
37002;DHT22;22913;51.910;8.374;2023-04-03T03:37:56;1.50;99.90
37002;DHT22;22913;51.910;8.374;2023-04-03T03:40:42;1.40;99.90
37002;DHT22;22913;51.910;8.374;2023-04-03T03:43:28;1.40;99.90
37002;DHT22;22913;51.910;8.374;2023-04-03T03:46:15;1.30;99.90
37002;DHT22;22913;51.910;8.374;2023-04-03T03:49:01;1.30;99.90
37002;DHT22;22913;51.910;8.374;2023-04-03T03:51:46;1.30;99.90
37002;DHT22;22913;51.910;8.374;2023-04-03T03:54:32;1.30;99.90
37002;DHT22;22913;51.910;8.374;2023-04-03T03:57:18;1.20;99.90
37002;DHT22;22913;51.910;8.374;2023-04-03T04:00:04;1.20;99.90
37002;DHT22;22913;51.910;8.374;2023-04-03T04:02:52;1.20;99.90
37002;DHT22;22913;51.910;8.374;2023-04-03T04:05:38;1.20;99.90
37002;DHT22;22913;51.910;8.374;2023-04-03T04:08:24;1.20;99.90
37002;DHT22;22913;51.910;8.374;2023-04-03T04:11:09;1.20;99.90
37002;DHT22;22913;51.910;8.374;2023-04-03T04:13:55;1.10;99.90
37002;DHT22;22913;51.910;8.374;2023-04-03T04:16:41;1.20;99.90
37002;DHT22;22913;51.910;8.374;2023-04-03T04:19:28;1.10;99.90
37002;DHT22;22913;51.910;8.374;2023-04-03T04:22:14;1.20;99.90
37002;DHT22;22913;51.910;8.374;2023-04-03T04:24:59;1.10;99.90
37002;DHT22;22913;51.910;8.374;2023-04-03T04:27:45;1.10;99.90
37002;DHT22;22913;51.910;8.374;2023-04-03T04:30:31;1.00;99.90
37002;DHT22;22913;51.910;8.374;2023-04-03T04:33:17;1.00;99.90
37002;DHT22;22913;51.910;8.374;2023-04-03T04:36:04;1.00;99.90
37002;DHT22;22913;51.910;8.374;2023-04-03T04:38:50;0.90;99.90
37002;DHT22;22913;51.910;8.374;2023-04-03T04:41:36;0.90;99.90
37002;DHT22;22913;51.910;8.374;2023-04-03T04:44:22;0.90;99.90
37002;DHT22;22913;51.910;8.374;2023-04-03T04:47:08;0.90;99.90
37002;DHT22;22913;51.910;8.374;2023-04-03T04:49:53;0.90;99.90
37002;DHT22;22913;51.910;8.374;2023-04-03T04:52:40;0.90;99.90
37002;DHT22;22913;51.910;8.374;2023-04-03T04:55:26;0.80;99.90
37002;DHT22;22913;51.910;8.374;2023-04-03T04:58:12;0.80;99.90
37002;DHT22;22913;51.910;8.374;2023-04-03T05:00:58;0.80;99.90
37002;DHT22;22913;51.910;8.374;2023-04-03T05:03:45;0.80;99.90
37002;DHT22;22913;51.910;8.374;2023-04-03T05:06:32;0.80;99.90
37002;DHT22;22913;51.910;8.374;2023-04-03T05:09:20;0.80;99.90
37002;DHT22;22913;51.910;8.374;2023-04-03T05:12:06;0.80;99.90
37002;DHT22;22913;51.910;8.374;2023-04-03T05:14:52;0.80;99.90
37002;DHT22;22913;51.910;8.374;2023-04-03T05:17:38;0.70;99.90
37002;DHT22;22913;51.910;8.374;2023-04-03T05:20:23;0.70;99.90
37002;DHT22;22913;51.910;8.374;2023-04-03T05:23:09;0.70;99.90
37002;DHT22;22913;51.910;8.374;2023-04-03T05:25:56;0.70;99.90
37002;DHT22;22913;51.910;8.374;2023-04-03T05:28:42;0.70;99.90
37002;DHT22;22913;51.910;8.374;2023-04-03T05:31:28;0.70;99.90
37002;DHT22;22913;51.910;8.374;2023-04-03T05:34:14;0.70;99.90
37002;DHT22;22913;51.910;8.374;2023-04-03T05:36:59;0.70;99.90
37002;DHT22;22913;51.910;8.374;2023-04-03T05:39:47;0.70;99.90
37002;DHT22;22913;51.910;8.374;2023-04-03T05:42:34;0.70;99.90
37002;DHT22;22913;51.910;8.374;2023-04-03T05:45:19;0.70;99.90
37002;DHT22;22913;51.910;8.374;2023-04-03T05:48:05;0.80;99.90
37002;DHT22;22913;51.910;8.374;2023-04-03T05:50:51;0.80;99.90
37002;DHT22;22913;51.910;8.374;2023-04-03T05:53:36;0.80;99.90
37002;DHT22;22913;51.910;8.374;2023-04-03T05:56:22;0.80;99.90
37002;DHT22;22913;51.910;8.374;2023-04-03T05:59:09;0.80;99.90
37002;DHT22;22913;51.910;8.374;2023-04-03T06:01:55;0.90;99.90
37002;DHT22;22913;51.910;8.374;2023-04-03T06:04:41;0.90;99.90
37002;DHT22;22913;51.910;8.374;2023-04-03T06:07:26;1.00;99.90
37002;DHT22;22913;51.910;8.374;2023-04-03T06:10:13;1.00;99.90
37002;DHT22;22913;51.910;8.374;2023-04-03T06:12:59;1.10;99.90
37002;DHT22;22913;51.910;8.374;2023-04-03T06:15:46;1.10;99.90
37002;DHT22;22913;51.910;8.374;2023-04-03T06:18:31;1.20;99.90
37002;DHT22;22913;51.910;8.374;2023-04-03T06:21:17;1.20;99.90
37002;DHT22;22913;51.910;8.374;2023-04-03T06:24:03;1.20;99.90
37002;DHT22;22913;51.910;8.374;2023-04-03T06:26:50;1.30;99.90
37002;DHT22;22913;51.910;8.374;2023-04-03T06:29:36;1.30;99.90
37002;DHT22;22913;51.910;8.374;2023-04-03T06:32:23;1.30;99.90
37002;DHT22;22913;51.910;8.374;2023-04-03T06:35:09;1.30;99.90
37002;DHT22;22913;51.910;8.374;2023-04-03T06:37:55;1.40;99.90
37002;DHT22;22913;51.910;8.374;2023-04-03T06:40:41;1.40;99.90
37002;DHT22;22913;51.910;8.374;2023-04-03T06:43:26;1.50;99.90
37002;DHT22;22913;51.910;8.374;2023-04-03T06:46:15;1.60;99.90
37002;DHT22;22913;51.910;8.374;2023-04-03T06:49:03;1.70;99.90
37002;DHT22;22913;51.910;8.374;2023-04-03T06:51:48;1.70;99.90
37002;DHT22;22913;51.910;8.374;2023-04-03T06:54:34;1.70;99.90
37002;DHT22;22913;51.910;8.374;2023-04-03T06:57:20;1.80;99.90
37002;DHT22;22913;51.910;8.374;2023-04-03T07:00:07;1.90;99.90
37002;DHT22;22913;51.910;8.374;2023-04-03T07:02:53;2.00;99.90
37002;DHT22;22913;51.910;8.374;2023-04-03T07:05:42;2.10;99.90
37002;DHT22;22913;51.910;8.374;2023-04-03T07:08:29;2.20;99.90
37002;DHT22;22913;51.910;8.374;2023-04-03T07:11:15;2.30;99.90
37002;DHT22;22913;51.910;8.374;2023-04-03T07:14:01;2.30;99.90
37002;DHT22;22913;51.910;8.374;2023-04-03T07:16:47;2.40;99.90
37002;DHT22;22913;51.910;8.374;2023-04-03T07:19:33;2.50;99.90
37002;DHT22;22913;51.910;8.374;2023-04-03T07:22:20;2.60;99.90
37002;DHT22;22913;51.910;8.374;2023-04-03T07:25:06;2.70;99.90
37002;DHT22;22913;51.910;8.374;2023-04-03T07:27:52;2.70;99.90
37002;DHT22;22913;51.910;8.374;2023-04-03T07:30:43;2.80;99.90
37002;DHT22;22913;51.910;8.374;2023-04-03T07:33:29;2.90;99.90
37002;DHT22;22913;51.910;8.374;2023-04-03T07:36:19;3.00;99.90
37002;DHT22;22913;51.910;8.374;2023-04-03T07:39:07;3.00;99.90
37002;DHT22;22913;51.910;8.374;2023-04-03T07:41:52;3.00;99.90
37002;DHT22;22913;51.910;8.374;2023-04-03T07:44:39;3.10;99.90
37002;DHT22;22913;51.910;8.374;2023-04-03T07:47:25;3.20;99.90
37002;DHT22;22913;51.910;8.374;2023-04-03T07:50:10;3.30;99.90
37002;DHT22;22913;51.910;8.374;2023-04-03T07:52:56;3.30;99.90
37002;DHT22;22913;51.910;8.374;2023-04-03T07:55:46;3.40;99.90
37002;DHT22;22913;51.910;8.374;2023-04-03T07:58:32;3.40;99.90
37002;DHT22;22913;51.910;8.374;2023-04-03T08:01:18;3.50;99.90
37002;DHT22;22913;51.910;8.374;2023-04-03T08:04:03;3.50;99.90
37002;DHT22;22913;51.910;8.374;2023-04-03T08:06:49;3.60;99.90
37002;DHT22;22913;51.910;8.374;2023-04-03T08:09:35;3.70;99.90
37002;DHT22;22913;51.910;8.374;2023-04-03T08:12:22;3.80;99.90
37002;DHT22;22913;51.910;8.374;2023-04-03T08:15:08;3.90;99.90
37002;DHT22;22913;51.910;8.374;2023-04-03T08:17:54;4.00;99.90
37002;DHT22;22913;51.910;8.374;2023-04-03T08:20:40;4.10;99.90
37002;DHT22;22913;51.910;8.374;2023-04-03T08:23:25;4.10;99.90
37002;DHT22;22913;51.910;8.374;2023-04-03T08:26:13;4.30;99.90
37002;DHT22;22913;51.910;8.374;2023-04-03T08:29:01;4.30;99.90
37002;DHT22;22913;51.910;8.374;2023-04-03T08:31:46;4.40;99.90
37002;DHT22;22913;51.910;8.374;2023-04-03T08:34:33;4.50;99.90
37002;DHT22;22913;51.910;8.374;2023-04-03T08:37:21;4.60;99.90
37002;DHT22;22913;51.910;8.374;2023-04-03T08:40:12;4.70;99.90
37002;DHT22;22913;51.910;8.374;2023-04-03T08:43:10;4.80;99.90
37002;DHT22;22913;51.910;8.374;2023-04-03T08:46:11;4.90;99.90
37002;DHT22;22913;51.910;8.374;2023-04-03T08:48:59;5.00;99.90
37002;DHT22;22913;51.910;8.374;2023-04-03T08:51:47;5.10;99.90
37002;DHT22;22913;51.910;8.374;2023-04-03T08:54:35;5.20;99.90
37002;DHT22;22913;51.910;8.374;2023-04-03T08:57:28;5.20;99.90
37002;DHT22;22913;51.910;8.374;2023-04-03T09:00:18;5.30;99.90
37002;DHT22;22913;51.910;8.374;2023-04-03T09:03:10;5.30;99.90
37002;DHT22;22913;51.910;8.374;2023-04-03T09:06:00;5.40;99.90
37002;DHT22;22913;51.910;8.374;2023-04-03T09:08:50;5.50;99.90
37002;DHT22;22913;51.910;8.374;2023-04-03T09:11:45;5.50;99.90
37002;DHT22;22913;51.910;8.374;2023-04-03T09:14:37;5.70;99.90
37002;DHT22;22913;51.910;8.374;2023-04-03T09:17:33;5.80;99.90
37002;DHT22;22913;51.910;8.374;2023-04-03T09:20:26;5.80;99.90
37002;DHT22;22913;51.910;8.374;2023-04-03T09:23:26;5.90;99.90
37002;DHT22;22913;51.910;8.374;2023-04-03T09:26:15;6.00;99.90
37002;DHT22;22913;51.910;8.374;2023-04-03T09:29:06;6.10;99.90
37002;DHT22;22913;51.910;8.374;2023-04-03T09:31:56;6.20;99.90
37002;DHT22;22913;51.910;8.374;2023-04-03T09:34:43;6.30;99.90
37002;DHT22;22913;51.910;8.374;2023-04-03T09:37:39;6.40;99.90
37002;DHT22;22913;51.910;8.374;2023-04-03T09:40:36;6.50;99.90
37002;DHT22;22913;51.910;8.374;2023-04-03T09:43:29;6.70;99.90
37002;DHT22;22913;51.910;8.374;2023-04-03T09:46:28;6.70;99.90
37002;DHT22;22913;51.910;8.374;2023-04-03T09:49:14;7.00;99.90
37002;DHT22;22913;51.910;8.374;2023-04-03T09:52:18;7.00;99.90
37002;DHT22;22913;51.910;8.374;2023-04-03T09:55:13;7.00;99.90
37002;DHT22;22913;51.910;8.374;2023-04-03T09:58:00;7.30;99.90
37002;DHT22;22913;51.910;8.374;2023-04-03T10:00:54;7.40;99.90
37002;DHT22;22913;51.910;8.374;2023-04-03T10:03:40;7.50;99.90
37002;DHT22;22913;51.910;8.374;2023-04-03T10:06:32;7.60;99.90
37002;DHT22;22913;51.910;8.374;2023-04-03T10:09:21;7.70;99.90
37002;DHT22;22913;51.910;8.374;2023-04-03T10:12:09;7.90;99.90
37002;DHT22;22913;51.910;8.374;2023-04-03T10:14:57;8.00;99.90
37002;DHT22;22913;51.910;8.374;2023-04-03T10:17:53;8.20;99.90
37002;DHT22;22913;51.910;8.374;2023-04-03T10:20:44;8.40;99.90
37002;DHT22;22913;51.910;8.374;2023-04-03T10:23:41;8.60;99.90
37002;DHT22;22913;51.910;8.374;2023-04-03T10:26:37;8.80;99.90
37002;DHT22;22913;51.910;8.374;2023-04-03T10:29:40;8.80;99.90
37002;DHT22;22913;51.910;8.374;2023-04-03T10:32:41;9.10;99.90
37002;DHT22;22913;51.910;8.374;2023-04-03T10:35:42;9.20;99.90
37002;DHT22;22913;51.910;8.374;2023-04-03T10:38:38;9.40;99.90
37002;DHT22;22913;51.910;8.374;2023-04-03T10:41:33;9.60;99.90
37002;DHT22;22913;51.910;8.374;2023-04-03T10:44:30;9.70;99.90
37002;DHT22;22913;51.910;8.374;2023-04-03T10:47:22;9.80;99.90
37002;DHT22;22913;51.910;8.374;2023-04-03T10:50:35;9.80;99.90
37002;DHT22;22913;51.910;8.374;2023-04-03T10:53:27;9.90;99.90
37002;DHT22;22913;51.910;8.374;2023-04-03T10:56:20;10.30;99.90
37002;DHT22;22913;51.910;8.374;2023-04-03T10:59:15;10.50;99.90
37002;DHT22;22913;51.910;8.374;2023-04-03T11:02:07;10.80;99.90
37002;DHT22;22913;51.910;8.374;2023-04-03T11:04:56;11.30;99.90
37002;DHT22;22913;51.910;8.374;2023-04-03T11:07:48;11.70;99.90
37002;DHT22;22913;51.910;8.374;2023-04-03T11:10:39;11.60;99.90
37002;DHT22;22913;51.910;8.374;2023-04-03T11:13:30;11.70;99.90
37002;DHT22;22913;51.910;8.374;2023-04-03T11:16:21;11.60;99.90
37002;DHT22;22913;51.910;8.374;2023-04-03T11:19:16;11.30;99.90
37002;DHT22;22913;51.910;8.374;2023-04-03T11:22:13;11.00;99.90
37002;DHT22;22913;51.910;8.374;2023-04-03T11:25:04;10.50;99.90
37002;DHT22;22913;51.910;8.374;2023-04-03T11:27:55;10.30;99.90
37002;DHT22;22913;51.910;8.374;2023-04-03T11:30:46;10.50;99.90
37002;DHT22;22913;51.910;8.374;2023-04-03T11:33:45;11.00;99.90
37002;DHT22;22913;51.910;8.374;2023-04-03T11:36:40;11.60;99.90
37002;DHT22;22913;51.910;8.374;2023-04-03T11:39:30;12.50;99.90
37002;DHT22;22913;51.910;8.374;2023-04-03T11:42:29;12.80;99.90
37002;DHT22;22913;51.910;8.374;2023-04-03T11:45:25;13.50;99.90
37002;DHT22;22913;51.910;8.374;2023-04-03T11:51:43;14.40;99.90
37002;DHT22;22913;51.910;8.374;2023-04-03T11:54:49;14.30;99.90
37002;DHT22;22913;51.910;8.374;2023-04-03T11:57:46;13.60;99.90
37002;DHT22;22913;51.910;8.374;2023-04-03T12:04:09;12.40;99.90
37002;DHT22;22913;51.910;8.374;2023-04-03T12:07:18;12.60;99.90
37002;DHT22;22913;51.910;8.374;2023-04-03T12:10:17;12.90;99.90
37002;DHT22;22913;51.910;8.374;2023-04-03T12:13:15;13.10;99.90
37002;DHT22;22913;51.910;8.374;2023-04-03T12:16:03;13.10;99.90
37002;DHT22;22913;51.910;8.374;2023-04-03T12:19:00;13.80;99.90
37002;DHT22;22913;51.910;8.374;2023-04-03T12:22:09;14.70;99.90
37002;DHT22;22913;51.910;8.374;2023-04-03T12:24:57;14.90;99.90
37002;DHT22;22913;51.910;8.374;2023-04-03T12:27:43;14.90;99.90
37002;DHT22;22913;51.910;8.374;2023-04-03T12:30:30;14.80;99.90
37002;DHT22;22913;51.910;8.374;2023-04-03T12:33:26;15.60;99.90
37002;DHT22;22913;51.910;8.374;2023-04-03T12:36:17;15.80;99.70
37002;DHT22;22913;51.910;8.374;2023-04-03T12:39:17;15.50;98.00
37002;DHT22;22913;51.910;8.374;2023-04-03T12:45:19;14.90;98.50
37002;DHT22;22913;51.910;8.374;2023-04-03T12:48:13;14.50;98.30
37002;DHT22;22913;51.910;8.374;2023-04-03T12:51:00;14.30;98.90
37002;DHT22;22913;51.910;8.374;2023-04-03T12:53:46;13.70;99.10
37002;DHT22;22913;51.910;8.374;2023-04-03T12:56:32;13.10;98.70
37002;DHT22;22913;51.910;8.374;2023-04-03T12:59:21;12.60;98.90
37002;DHT22;22913;51.910;8.374;2023-04-03T13:02:23;12.40;99.40
37002;DHT22;22913;51.910;8.374;2023-04-03T13:05:15;12.30;99.90
37002;DHT22;22913;51.910;8.374;2023-04-03T13:08:04;12.80;99.90
37002;DHT22;22913;51.910;8.374;2023-04-03T13:10:55;13.80;98.70
37002;DHT22;22913;51.910;8.374;2023-04-03T13:13:54;14.80;98.70
37002;DHT22;22913;51.910;8.374;2023-04-03T13:16:41;15.90;97.10
37002;DHT22;22913;51.910;8.374;2023-04-03T13:19:28;16.60;94.90
37002;DHT22;22913;51.910;8.374;2023-04-03T13:22:26;17.10;93.70
37002;DHT22;22913;51.910;8.374;2023-04-03T13:25:15;17.40;92.20
37002;DHT22;22913;51.910;8.374;2023-04-03T13:28:02;17.90;91.40
37002;DHT22;22913;51.910;8.374;2023-04-03T13:31:03;17.70;90.30
37002;DHT22;22913;51.910;8.374;2023-04-03T13:33:57;18.80;90.10
37002;DHT22;22913;51.910;8.374;2023-04-03T13:36:45;19.20;87.60
37002;DHT22;22913;51.910;8.374;2023-04-03T13:39:32;19.80;83.80
37002;DHT22;22913;51.910;8.374;2023-04-03T13:42:23;20.30;82.40
37002;DHT22;22913;51.910;8.374;2023-04-03T13:45:19;20.60;76.10
37002;DHT22;22913;51.910;8.374;2023-04-03T13:48:15;19.80;77.30
37002;DHT22;22913;51.910;8.374;2023-04-03T13:51:04;19.80;76.60
37002;DHT22;22913;51.910;8.374;2023-04-03T13:53:53;20.30;74.90
37002;DHT22;22913;51.910;8.374;2023-04-03T13:56:40;19.80;73.90
37002;DHT22;22913;51.910;8.374;2023-04-03T13:59:29;20.10;74.90
37002;DHT22;22913;51.910;8.374;2023-04-03T14:02:18;20.20;73.80
37002;DHT22;22913;51.910;8.374;2023-04-03T14:05:06;20.90;73.40
37002;DHT22;22913;51.910;8.374;2023-04-03T14:07:54;20.70;71.80
37002;DHT22;22913;51.910;8.374;2023-04-03T14:10:41;20.90;72.40
37002;DHT22;22913;51.910;8.374;2023-04-03T14:13:30;21.00;71.90
37002;DHT22;22913;51.910;8.374;2023-04-03T14:16:19;20.60;70.80
37002;DHT22;22913;51.910;8.374;2023-04-03T14:19:06;19.50;71.30
37002;DHT22;22913;51.910;8.374;2023-04-03T14:21:53;19.00;73.50
37002;DHT22;22913;51.910;8.374;2023-04-03T14:24:40;18.30;73.30
37002;DHT22;22913;51.910;8.374;2023-04-03T14:27:28;18.10;74.80
37002;DHT22;22913;51.910;8.374;2023-04-03T14:30:17;18.80;73.20
37002;DHT22;22913;51.910;8.374;2023-04-03T14:33:04;19.10;71.80
37002;DHT22;22913;51.910;8.374;2023-04-03T14:35:49;18.80;71.60
37002;DHT22;22913;51.910;8.374;2023-04-03T14:38:35;18.30;71.20
37002;DHT22;22913;51.910;8.374;2023-04-03T14:41:24;18.40;72.30
37002;DHT22;22913;51.910;8.374;2023-04-03T14:44:10;18.90;71.00
37002;DHT22;22913;51.910;8.374;2023-04-03T14:46:56;18.70;70.70
37002;DHT22;22913;51.910;8.374;2023-04-03T14:49:42;18.10;71.70
37002;DHT22;22913;51.910;8.374;2023-04-03T14:52:30;17.70;72.20
37002;DHT22;22913;51.910;8.374;2023-04-03T14:55:17;17.10;74.50
37002;DHT22;22913;51.910;8.374;2023-04-03T14:58:04;17.40;72.60
37002;DHT22;22913;51.910;8.374;2023-04-03T15:00:50;18.30;72.90
37002;DHT22;22913;51.910;8.374;2023-04-03T15:03:35;19.10;70.70
37002;DHT22;22913;51.910;8.374;2023-04-03T15:06:21;19.80;69.90
37002;DHT22;22913;51.910;8.374;2023-04-03T15:09:17;19.70;69.50
37002;DHT22;22913;51.910;8.374;2023-04-03T15:12:05;20.00;68.00
37002;DHT22;22913;51.910;8.374;2023-04-03T15:14:52;20.20;69.10
37002;DHT22;22913;51.910;8.374;2023-04-03T15:17:37;19.90;68.00
37002;DHT22;22913;51.910;8.374;2023-04-03T15:20:25;19.00;66.90
37002;DHT22;22913;51.910;8.374;2023-04-03T15:23:13;19.20;69.40
37002;DHT22;22913;51.910;8.374;2023-04-03T15:25:59;18.90;67.10
37002;DHT22;22913;51.910;8.374;2023-04-03T15:28:46;19.20;68.50
37002;DHT22;22913;51.910;8.374;2023-04-03T15:31:33;19.50;67.30
37002;DHT22;22913;51.910;8.374;2023-04-03T15:34:19;20.00;67.40
37002;DHT22;22913;51.910;8.374;2023-04-03T15:37:05;20.10;68.40
37002;DHT22;22913;51.910;8.374;2023-04-03T15:39:50;20.10;66.00
37002;DHT22;22913;51.910;8.374;2023-04-03T15:42:36;19.80;66.60
37002;DHT22;22913;51.910;8.374;2023-04-03T15:45:22;19.20;65.90
37002;DHT22;22913;51.910;8.374;2023-04-03T15:48:10;19.20;67.40
37002;DHT22;22913;51.910;8.374;2023-04-03T15:50:55;19.00;67.80
37002;DHT22;22913;51.910;8.374;2023-04-03T15:53:41;18.60;67.60
37002;DHT22;22913;51.910;8.374;2023-04-03T15:56:27;18.00;68.70
37002;DHT22;22913;51.910;8.374;2023-04-03T15:59:13;17.10;69.80
37002;DHT22;22913;51.910;8.374;2023-04-03T16:01:59;16.70;71.20
37002;DHT22;22913;51.910;8.374;2023-04-03T16:04:47;16.00;71.80
37002;DHT22;22913;51.910;8.374;2023-04-03T16:07:33;15.20;73.60
37002;DHT22;22913;51.910;8.374;2023-04-03T16:10:19;14.60;74.00
37002;DHT22;22913;51.910;8.374;2023-04-03T16:13:05;14.10;75.10
37002;DHT22;22913;51.910;8.374;2023-04-03T16:15:51;13.60;75.70
37002;DHT22;22913;51.910;8.374;2023-04-03T16:18:37;13.10;77.20
37002;DHT22;22913;51.910;8.374;2023-04-03T16:21:24;13.20;78.40
37002;DHT22;22913;51.910;8.374;2023-04-03T16:24:10;13.20;78.20
37002;DHT22;22913;51.910;8.374;2023-04-03T16:26:56;13.20;78.70
37002;DHT22;22913;51.910;8.374;2023-04-03T16:29:42;13.20;78.70
37002;DHT22;22913;51.910;8.374;2023-04-03T16:32:30;13.40;78.50
37002;DHT22;22913;51.910;8.374;2023-04-03T16:35:17;13.40;77.90
37002;DHT22;22913;51.910;8.374;2023-04-03T16:38:04;13.40;78.80
37002;DHT22;22913;51.910;8.374;2023-04-03T16:40:50;13.40;78.10
37002;DHT22;22913;51.910;8.374;2023-04-03T16:43:36;13.20;78.70
37002;DHT22;22913;51.910;8.374;2023-04-03T16:46:22;13.10;79.00
37002;DHT22;22913;51.910;8.374;2023-04-03T16:49:08;13.00;78.80
37002;DHT22;22913;51.910;8.374;2023-04-03T16:51:53;12.90;80.10
37002;DHT22;22913;51.910;8.374;2023-04-03T16:54:40;12.80;79.60
37002;DHT22;22913;51.910;8.374;2023-04-03T16:57:26;12.70;81.20
37002;DHT22;22913;51.910;8.374;2023-04-03T17:00:13;12.60;81.30
37002;DHT22;22913;51.910;8.374;2023-04-03T17:02:59;12.50;80.90
37002;DHT22;22913;51.910;8.374;2023-04-03T17:05:46;12.30;82.00
37002;DHT22;22913;51.910;8.374;2023-04-03T17:08:33;12.00;82.90
37002;DHT22;22913;51.910;8.374;2023-04-03T17:11:20;12.00;83.60
37002;DHT22;22913;51.910;8.374;2023-04-03T17:14:06;11.70;82.80
37002;DHT22;22913;51.910;8.374;2023-04-03T17:16:52;11.70;83.70
37002;DHT22;22913;51.910;8.374;2023-04-03T17:19:40;11.60;85.50
37002;DHT22;22913;51.910;8.374;2023-04-03T17:22:27;11.50;85.70
37002;DHT22;22913;51.910;8.374;2023-04-03T17:25:13;11.60;85.30
37002;DHT22;22913;51.910;8.374;2023-04-03T17:28:00;11.50;85.30
37002;DHT22;22913;51.910;8.374;2023-04-03T17:30:46;11.30;85.40
37002;DHT22;22913;51.910;8.374;2023-04-03T17:33:32;11.10;87.30
37002;DHT22;22913;51.910;8.374;2023-04-03T17:36:18;11.00;86.90
37002;DHT22;22913;51.910;8.374;2023-04-03T17:39:04;11.00;87.30
37002;DHT22;22913;51.910;8.374;2023-04-03T17:41:50;10.70;89.10
37002;DHT22;22913;51.910;8.374;2023-04-03T17:44:39;10.50;89.10
37002;DHT22;22913;51.910;8.374;2023-04-03T17:47:25;10.30;90.30
37002;DHT22;22913;51.910;8.374;2023-04-03T17:50:11;10.00;90.20
37002;DHT22;22913;51.910;8.374;2023-04-03T17:52:59;9.80;90.40
37002;DHT22;22913;51.910;8.374;2023-04-03T17:55:45;9.70;91.10
37002;DHT22;22913;51.910;8.374;2023-04-03T17:58:31;9.70;91.30
37002;DHT22;22913;51.910;8.374;2023-04-03T18:01:21;9.60;91.70
37002;DHT22;22913;51.910;8.374;2023-04-03T18:04:06;9.30;91.80